sensor_id;sensor_type;location;lat;lon;timestamp;P1;durP1;ratioP1;P2;durP2;ratioP2
39308;SDS011;26019;47.510;19.122;2023-10-31T00:03:22;17.35;;;8.73;;
39308;SDS011;26019;47.510;19.122;2023-10-31T00:13:24;20.50;;;9.32;;
39308;SDS011;26019;47.510;19.122;2023-10-31T00:23:28;15.77;;;8.30;;
39308;SDS011;26019;47.510;19.122;2023-10-31T00:33:30;20.45;;;9.40;;
39308;SDS011;26019;47.510;19.122;2023-10-31T00:43:32;19.13;;;10.52;;
39308;SDS011;26019;47.510;19.122;2023-10-31T00:53:34;14.82;;;9.07;;
39308;SDS011;26019;47.510;19.122;2023-10-31T01:03:36;17.85;;;9.32;;
39308;SDS011;26019;47.510;19.122;2023-10-31T01:13:38;15.40;;;8.90;;
39308;SDS011;26019;47.510;19.122;2023-10-31T01:23:40;23.13;;;9.30;;
39308;SDS011;26019;47.510;19.122;2023-10-31T01:43:48;14.90;;;8.70;;
39308;SDS011;26019;47.510;19.122;2023-10-31T01:53:51;19.45;;;9.63;;
39308;SDS011;26019;47.510;19.122;2023-10-31T02:13:56;20.47;;;9.97;;
39308;SDS011;26019;47.510;19.122;2023-10-31T02:23:59;18.20;;;10.37;;
39308;SDS011;26019;47.510;19.122;2023-10-31T02:34:04;18.17;;;10.10;;
39308;SDS011;26019;47.510;19.122;2023-10-31T02:44:07;18.27;;;10.10;;
39308;SDS011;26019;47.510;19.122;2023-10-31T02:54:09;18.85;;;9.80;;
39308;SDS011;26019;47.510;19.122;2023-10-31T03:04:13;20.20;;;9.85;;
39308;SDS011;26019;47.510;19.122;2023-10-31T03:14:15;19.33;;;10.37;;
39308;SDS011;26019;47.510;19.122;2023-10-31T03:24:17;20.83;;;10.30;;
39308;SDS011;26019;47.510;19.122;2023-10-31T03:34:19;21.95;;;11.10;;
39308;SDS011;26019;47.510;19.122;2023-10-31T03:44:21;16.55;;;9.95;;
39308;SDS011;26019;47.510;19.122;2023-10-31T03:54:24;17.30;;;10.05;;
39308;SDS011;26019;47.510;19.122;2023-10-31T04:04:26;18.35;;;9.35;;
39308;SDS011;26019;47.510;19.122;2023-10-31T04:14:28;16.48;;;8.48;;
39308;SDS011;26019;47.510;19.122;2023-10-31T04:24:30;17.70;;;8.75;;
39308;SDS011;26019;47.510;19.122;2023-10-31T04:34:32;16.93;;;8.53;;
39308;SDS011;26019;47.510;19.122;2023-10-31T04:44:35;13.75;;;7.65;;
39308;SDS011;26019;47.510;19.122;2023-10-31T04:54:37;13.60;;;7.73;;
39308;SDS011;26019;47.510;19.122;2023-10-31T05:04:39;15.25;;;8.38;;
39308;SDS011;26019;47.510;19.122;2023-10-31T05:14:42;21.10;;;10.52;;
39308;SDS011;26019;47.510;19.122;2023-10-31T05:24:44;14.82;;;9.57;;
39308;SDS011;26019;47.510;19.122;2023-10-31T05:34:45;19.08;;;10.15;;
39308;SDS011;26019;47.510;19.122;2023-10-31T05:44:47;15.23;;;9.00;;
39308;SDS011;26019;47.510;19.122;2023-10-31T05:54:50;16.08;;;9.98;;
39308;SDS011;26019;47.510;19.122;2023-10-31T06:04:52;15.70;;;8.00;;
39308;SDS011;26019;47.510;19.122;2023-10-31T06:14:55;16.60;;;7.90;;
39308;SDS011;26019;47.510;19.122;2023-10-31T06:24:58;10.88;;;6.75;;
39308;SDS011;26019;47.510;19.122;2023-10-31T06:35:00;18.25;;;7.72;;
39308;SDS011;26019;47.510;19.122;2023-10-31T06:55:05;11.63;;;7.53;;
39308;SDS011;26019;47.510;19.122;2023-10-31T07:05:07;16.30;;;6.90;;
39308;SDS011;26019;47.510;19.122;2023-10-31T07:15:10;12.45;;;6.00;;
39308;SDS011;26019;47.510;19.122;2023-10-31T07:25:12;10.52;;;7.20;;
39308;SDS011;26019;47.510;19.122;2023-10-31T07:35:14;14.88;;;7.45;;
39308;SDS011;26019;47.510;19.122;2023-10-31T07:45:16;10.07;;;5.32;;
39308;SDS011;26019;47.510;19.122;2023-10-31T07:55:18;8.73;;;5.53;;
39308;SDS011;26019;47.510;19.122;2023-10-31T08:05:20;11.98;;;5.75;;
39308;SDS011;26019;47.510;19.122;2023-10-31T08:15:24;8.82;;;4.80;;
39308;SDS011;26019;47.510;19.122;2023-10-31T08:25:27;9.75;;;4.28;;
39308;SDS011;26019;47.510;19.122;2023-10-31T08:35:29;5.68;;;2.83;;
39308;SDS011;26019;47.510;19.122;2023-10-31T08:45:31;7.13;;;2.83;;
39308;SDS011;26019;47.510;19.122;2023-10-31T08:55:32;4.65;;;2.70;;
39308;SDS011;26019;47.510;19.122;2023-10-31T09:05:34;4.05;;;2.45;;
39308;SDS011;26019;47.510;19.122;2023-10-31T09:15:36;7.68;;;2.63;;
39308;SDS011;26019;47.510;19.122;2023-10-31T09:25:38;3.42;;;2.00;;
39308;SDS011;26019;47.510;19.122;2023-10-31T09:45:42;6.10;;;2.60;;
39308;SDS011;26019;47.510;19.122;2023-10-31T09:55:43;4.47;;;2.78;;
39308;SDS011;26019;47.510;19.122;2023-10-31T10:05:46;6.35;;;3.08;;
39308;SDS011;26019;47.510;19.122;2023-10-31T10:15:50;8.10;;;2.75;;
39308;SDS011;26019;47.510;19.122;2023-10-31T10:25:56;4.68;;;2.17;;
39308;SDS011;26019;47.510;19.122;2023-10-31T10:35:59;7.43;;;3.25;;
39308;SDS011;26019;47.510;19.122;2023-10-31T10:46:03;3.70;;;2.00;;
39308;SDS011;26019;47.510;19.122;2023-10-31T10:56:09;8.77;;;1.95;;
39308;SDS011;26019;47.510;19.122;2023-10-31T11:06:18;4.32;;;1.25;;
39308;SDS011;26019;47.510;19.122;2023-10-31T11:16:41;5.60;;;1.85;;
39308;SDS011;26019;47.510;19.122;2023-10-31T11:26:50;5.03;;;1.42;;
39308;SDS011;26019;47.510;19.122;2023-10-31T11:37:24;5.53;;;1.67;;
39308;SDS011;26019;47.510;19.122;2023-10-31T11:47:44;5.38;;;2.53;;
39308;SDS011;26019;47.510;19.122;2023-10-31T11:57:50;7.18;;;3.72;;
39308;SDS011;26019;47.510;19.122;2023-10-31T12:17:58;10.75;;;4.60;;
39308;SDS011;26019;47.510;19.122;2023-10-31T12:28:03;15.73;;;5.28;;
39308;SDS011;26019;47.510;19.122;2023-10-31T12:38:05;19.35;;;5.43;;
39308;SDS011;26019;47.510;19.122;2023-10-31T12:48:10;7.57;;;3.20;;
39308;SDS011;26019;47.510;19.122;2023-10-31T12:58:19;13.35;;;4.75;;
39308;SDS011;26019;47.510;19.122;2023-10-31T13:08:28;18.90;;;8.90;;
39308;SDS011;26019;47.510;19.122;2023-10-31T13:18:30;9.57;;;6.20;;
39308;SDS011;26019;47.510;19.122;2023-10-31T13:28:33;15.33;;;6.80;;
39308;SDS011;26019;47.510;19.122;2023-10-31T13:38:36;9.45;;;5.45;;
39308;SDS011;26019;47.510;19.122;2023-10-31T13:48:41;9.93;;;4.63;;
39308;SDS011;26019;47.510;19.122;2023-10-31T13:58:44;5.03;;;3.75;;
39308;SDS011;26019;47.510;19.122;2023-10-31T14:08:46;4.37;;;2.60;;
39308;SDS011;26019;47.510;19.122;2023-10-31T14:18:54;2.53;;;1.67;;
39308;SDS011;26019;47.510;19.122;2023-10-31T14:28:57;6.32;;;2.78;;
39308;SDS011;26019;47.510;19.122;2023-10-31T14:39:00;3.50;;;2.50;;
39308;SDS011;26019;47.510;19.122;2023-10-31T14:49:02;3.35;;;2.83;;
39308;SDS011;26019;47.510;19.122;2023-10-31T14:59:04;2.65;;;2.20;;
39308;SDS011;26019;47.510;19.122;2023-10-31T15:19:14;2.70;;;2.42;;
39308;SDS011;26019;47.510;19.122;2023-10-31T15:29:16;3.10;;;2.60;;
39308;SDS011;26019;47.510;19.122;2023-10-31T15:39:18;2.47;;;2.20;;
39308;SDS011;26019;47.510;19.122;2023-10-31T15:49:20;4.15;;;2.60;;
39308;SDS011;26019;47.510;19.122;2023-10-31T15:59:23;2.75;;;2.10;;
39308;SDS011;26019;47.510;19.122;2023-10-31T16:09:25;2.10;;;1.90;;
39308;SDS011;26019;47.510;19.122;2023-10-31T16:19:27;1.60;;;1.50;;
39308;SDS011;26019;47.510;19.122;2023-10-31T16:29:29;3.08;;;1.77;;
39308;SDS011;26019;47.510;19.122;2023-10-31T16:39:30;2.30;;;2.00;;
39308;SDS011;26019;47.510;19.122;2023-10-31T16:49:32;3.05;;;1.90;;
39308;SDS011;26019;47.510;19.122;2023-10-31T16:59:34;2.00;;;1.83;;
39308;SDS011;26019;47.510;19.122;2023-10-31T17:09:36;2.40;;;2.13;;
39308;SDS011;26019;47.510;19.122;2023-10-31T17:19:38;3.70;;;2.30;;
39308;SDS011;26019;47.510;19.122;2023-10-31T17:29:41;2.25;;;1.90;;
39308;SDS011;26019;47.510;19.122;2023-10-31T17:39:47;1.60;;;1.50;;
39308;SDS011;26019;47.510;19.122;2023-10-31T17:49:49;2.65;;;1.30;;
39308;SDS011;26019;47.510;19.122;2023-10-31T17:59:51;2.78;;;1.25;;
39308;SDS011;26019;47.510;19.122;2023-10-31T18:09:53;1.23;;;1.13;;
39308;SDS011;26019;47.510;19.122;2023-10-31T18:19:55;3.83;;;1.00;;
39308;SDS011;26019;47.510;19.122;2023-10-31T18:29:57;1.33;;;0.80;;
39308;SDS011;26019;47.510;19.122;2023-10-31T18:39:59;1.88;;;1.27;;
39308;SDS011;26019;47.510;19.122;2023-10-31T18:50:03;1.85;;;1.00;;
39308;SDS011;26019;47.510;19.122;2023-10-31T19:00:07;2.35;;;1.13;;
39308;SDS011;26019;47.510;19.122;2023-10-31T19:10:10;2.65;;;1.40;;
39308;SDS011;26019;47.510;19.122;2023-10-31T19:20:12;5.30;;;0.90;;
39308;SDS011;26019;47.510;19.122;2023-10-31T19:30:17;3.28;;;1.13;;
39308;SDS011;26019;47.510;19.122;2023-10-31T19:40:22;1.65;;;1.25;;
39308;SDS011;26019;47.510;19.122;2023-10-31T19:50:27;1.13;;;0.95;;
39308;SDS011;26019;47.510;19.122;2023-10-31T20:00:32;1.00;;;0.90;;
39308;SDS011;26019;47.510;19.122;2023-10-31T20:10:34;1.75;;;0.95;;
39308;SDS011;26019;47.510;19.122;2023-10-31T20:20:39;1.45;;;0.80;;
39308;SDS011;26019;47.510;19.122;2023-10-31T20:30:47;0.75;;;0.75;;
39308;SDS011;26019;47.510;19.122;2023-10-31T20:40:49;2.13;;;0.82;;
39308;SDS011;26019;47.510;19.122;2023-10-31T20:50:53;2.90;;;1.27;;
39308;SDS011;26019;47.510;19.122;2023-10-31T21:01:00;1.63;;;1.20;;
39308;SDS011;26019;47.510;19.122;2023-10-31T21:11:02;1.33;;;1.10;;
39308;SDS011;26019;47.510;19.122;2023-10-31T21:21:07;2.40;;;1.50;;
39308;SDS011;26019;47.510;19.122;2023-10-31T21:31:08;2.42;;;1.98;;
39308;SDS011;26019;47.510;19.122;2023-10-31T21:41:10;1.63;;;1.52;;
39308;SDS011;26019;47.510;19.122;2023-10-31T21:51:12;1.50;;;1.00;;
39308;SDS011;26019;47.510;19.122;2023-10-31T22:01:26;1.00;;;1.00;;
39308;SDS011;26019;47.510;19.122;2023-10-31T22:11:29;1.95;;;1.05;;
39308;SDS011;26019;47.510;19.122;2023-10-31T22:21:31;2.90;;;1.00;;
39308;SDS011;26019;47.510;19.122;2023-10-31T22:31:33;2.63;;;1.50;;
39308;SDS011;26019;47.510;19.122;2023-10-31T22:41:37;2.80;;;1.42;;
39308;SDS011;26019;47.510;19.122;2023-10-31T22:51:39;2.53;;;1.80;;
39308;SDS011;26019;47.510;19.122;2023-10-31T23:11:58;4.85;;;1.50;;
39308;SDS011;26019;47.510;19.122;2023-10-31T23:22:00;2.35;;;1.70;;
39308;SDS011;26019;47.510;19.122;2023-10-31T23:32:13;3.10;;;2.15;;
39308;SDS011;26019;47.510;19.122;2023-10-31T23:42:16;3.60;;;1.90;;
